Time,TemperatureF,DewpointF,PressureIn,WindDirection,WindDirectionDegrees,WindSpeedMPH,WindSpeedGustMPH,Humidity,HourlyPrecipIn,Conditions,Clouds,dailyrainin,SoftwareType,DateUTC
2013-07-25 00:22:00,71.0,53.0,29.84,West,261,0.0,1.0,53,0.00,,,0.00,,2013-07-25 07:22:00,
2013-07-25 00:32:00,71.0,54.0,29.84,West,261,0.0,1.0,54,0.00,,,0.00,,2013-07-25 07:32:00,
2013-07-25 00:43:00,71.0,54.0,29.84,West,261,0.0,1.0,54,0.00,,,0.00,,2013-07-25 07:43:00,
2013-07-25 00:53:00,70.0,53.0,29.83,West,261,0.0,1.0,55,0.00,,,0.00,,2013-07-25 07:53:00,
2013-07-25 01:02:00,70.0,54.0,29.83,WSW,251,1.0,3.0,56,0.00,,,0.00,,2013-07-25 08:02:00,
2013-07-25 01:12:00,70.0,54.0,29.83,WSW,251,1.0,3.0,56,0.00,,,0.00,,2013-07-25 08:12:00,
2013-07-25 01:22:00,70.0,54.0,29.83,WSW,251,0.0,1.0,57,0.00,,,0.00,,2013-07-25 08:22:00,
2013-07-25 01:32:00,69.0,54.0,29.84,SSW,202,0.0,2.0,58,0.00,,,0.00,,2013-07-25 08:32:00,
2013-07-25 01:44:00,69.0,54.0,29.84,SSW,202,0.0,2.0,58,0.00,,,0.00,,2013-07-25 08:44:00,
2013-07-25 01:52:00,69.0,54.0,29.84,SW,217,1.0,5.0,58,0.00,,,0.00,,2013-07-25 08:52:00,
2013-07-25 02:02:00,69.0,54.0,29.84,SW,217,1.0,5.0,58,0.00,,,0.00,,2013-07-25 09:02:00,
2013-07-25 02:12:00,70.0,54.0,29.83,WSW,255,1.0,5.0,57,0.00,,,0.00,,2013-07-25 09:12:00,
2013-07-25 02:22:00,69.0,54.0,29.83,WSW,255,2.0,5.0,58,0.00,,,0.00,,2013-07-25 09:22:00,
2013-07-25 02:32:00,69.0,54.0,29.83,WSW,255,2.0,5.0,58,0.00,,,0.00,,2013-07-25 09:32:00,
2013-07-25 02:43:00,69.0,54.0,29.84,WSW,255,0.0,1.0,59,0.00,,,0.00,,2013-07-25 09:43:00,
2013-07-25 02:53:00,68.0,53.0,29.84,SW,221,0.0,3.0,59,0.00,,,0.00,,2013-07-25 09:53:00,
2013-07-25 03:01:00,68.0,53.0,29.84,SW,221,0.0,1.0,59,0.00,,,0.00,,2013-07-25 10:01:00,
2013-07-25 03:12:00,68.0,53.0,29.84,SW,221,0.0,1.0,59,0.00,,,0.00,,2013-07-25 10:12:00,
2013-07-25 03:42:00,67.0,54.0,29.85,WSW,256,0.0,3.0,62,0.00,,,0.00,,2013-07-25 10:42:00,
2013-07-25 03:53:00,67.0,54.0,29.85,WSW,256,0.0,3.0,62,0.00,,,0.00,,2013-07-25 10:53:00,
2013-07-25 04:02:00,67.0,53.0,29.84,WSW,258,0.0,3.0,61,0.00,,,0.00,,2013-07-25 11:02:00,
2013-07-25 04:12:00,67.0,54.0,29.84,WSW,258,0.0,1.0,62,0.00,,,0.00,,2013-07-25 11:12:00,
2013-07-25 04:32:00,66.0,53.0,29.84,WSW,258,0.0,2.0,63,0.00,,,0.00,,2013-07-25 11:32:00,
2013-07-25 04:43:00,66.0,53.0,29.84,WSW,258,0.0,2.0,64,0.00,,,0.00,,2013-07-25 11:43:00,
2013-07-25 05:02:00,66.0,53.0,29.85,WSW,258,0.0,1.0,63,0.00,,,0.00,,2013-07-25 12:02:00,
2013-07-25 05:12:00,65.0,53.0,29.85,WSW,258,0.0,1.0,64,0.00,,,0.00,,2013-07-25 12:12:00,
2013-07-25 05:32:00,65.0,53.0,29.85,WSW,258,0.0,2.0,64,0.00,,,0.00,,2013-07-25 12:32:00,
2013-07-25 05:44:00,66.0,53.0,29.85,WSW,252,2.0,8.0,64,0.00,,,0.00,,2013-07-25 12:44:00,
2013-07-25 05:52:00,66.0,53.0,29.85,WSW,252,2.0,8.0,64,0.00,,,0.00,,2013-07-25 12:52:00,
2013-07-25 06:02:00,65.0,53.0,29.85,WSW,252,2.0,5.0,64,0.00,,,0.00,,2013-07-25 13:02:00,
2013-07-25 06:22:00,65.0,53.0,29.85,WSW,252,0.0,3.0,65,0.00,,,0.00,,2013-07-25 13:22:00,
2013-07-25 06:42:00,65.0,53.0,29.86,WSW,257,0.0,3.0,65,0.00,,,0.00,,2013-07-25 13:42:00,
2013-07-25 07:11:00,65.0,53.0,29.87,SW,235,2.0,4.0,66,0.00,,,0.00,,2013-07-25 14:11:00,
2013-07-25 07:33:00,66.0,54.0,29.87,WSW,252,2.0,5.0,65,0.00,,,0.00,,2013-07-25 14:33:00,
2013-07-25 07:43:00,67.0,54.0,29.88,SW,225,3.0,7.0,64,0.00,,,0.00,,2013-07-25 14:43:00,
2013-07-25 07:53:00,67.0,54.0,29.88,SW,225,3.0,7.0,64,0.00,,,0.00,,2013-07-25 14:53:00,
2013-07-25 08:02:00,67.0,54.0,29.88,WSW,246,4.0,7.0,63,0.00,,,0.00,,2013-07-25 15:02:00,
2013-07-25 08:11:00,67.0,54.0,29.88,WSW,246,4.0,7.0,63,0.00,,,0.00,,2013-07-25 15:11:00,
2013-07-25 08:22:00,68.0,54.0,29.89,WSW,241,3.0,6.0,62,0.00,,,0.00,,2013-07-25 15:22:00,
2013-07-25 08:43:00,69.0,55.0,29.89,WSW,240,0.0,5.0,61,0.00,,,0.00,,2013-07-25 15:43:00,
2013-07-25 08:52:00,69.0,55.0,29.89,WSW,240,0.0,5.0,61,0.00,,,0.00,,2013-07-25 15:52:00,
2013-07-25 09:02:00,69.0,55.0,29.89,WSW,240,0.0,5.0,61,0.00,,,0.00,,2013-07-25 16:02:00,
2013-07-25 09:22:00,71.0,56.0,29.89,WSW,252,2.0,6.0,60,0.00,,,0.00,,2013-07-25 16:22:00,
2013-07-25 09:45:00,73.0,57.0,29.89,WSW,254,2.0,6.0,57,0.00,,,0.00,,2013-07-25 16:45:00,
2013-07-25 09:53:00,74.0,58.0,29.89,WSW,254,0.0,4.0,57,0.00,,,0.00,,2013-07-25 16:53:00,
2013-07-25 10:02:00,74.0,58.0,29.89,WSW,254,0.0,4.0,57,0.00,,,0.00,,2013-07-25 17:02:00,
2013-07-25 10:11:00,75.0,57.0,29.90,WSW,253,0.0,3.0,53,0.00,,,0.00,,2013-07-25 17:11:00,
2013-07-25 10:32:00,77.0,57.0,29.90,SW,235,3.0,6.0,51,0.00,,,0.00,,2013-07-25 17:32:00,
2013-07-25 10:43:00,78.0,58.0,29.90,WSW,252,1.0,7.0,50,0.00,,,0.00,,2013-07-25 17:43:00,
2013-07-25 10:53:00,80.0,59.0,29.90,SW,236,1.0,6.0,48,0.00,,,0.00,,2013-07-25 17:53:00,
2013-07-25 11:01:00,80.0,59.0,29.90,SW,236,1.0,6.0,48,0.00,,,0.00,,2013-07-25 18:01:00,
2013-07-25 11:11:00,81.0,59.0,29.90,WSW,242,2.0,7.0,47,0.00,,,0.00,,2013-07-25 18:11:00,
2013-07-25 11:22:00,82.0,59.0,29.90,WSW,250,1.0,7.0,46,0.00,,,0.00,,2013-07-25 18:22:00,
2013-07-25 11:33:00,83.0,59.0,29.89,WSW,252,3.0,8.0,45,0.00,,,0.00,,2013-07-25 18:33:00,
2013-07-25 11:42:00,83.0,59.0,29.89,WSW,252,3.0,8.0,45,0.00,,,0.00,,2013-07-25 18:42:00,
2013-07-25 11:52:00,83.0,59.0,29.89,WSW,252,3.0,8.0,45,0.00,,,0.00,,2013-07-25 18:52:00,
2013-07-25 12:01:00,84.0,60.0,29.89,WSW,240,3.0,7.0,44,0.00,,,0.00,,2013-07-25 19:01:00,
2013-07-25 12:11:00,85.0,60.0,29.89,SW,234,2.0,7.0,43,0.00,,,0.00,,2013-07-25 19:11:00,
2013-07-25 12:22:00,85.0,60.0,29.89,SW,234,2.0,7.0,43,0.00,,,0.00,,2013-07-25 19:22:00,
2013-07-25 12:33:00,87.0,60.0,29.89,WSW,248,2.0,8.0,41,0.00,,,0.00,,2013-07-25 19:33:00,
2013-07-25 12:42:00,88.0,61.0,29.89,WSW,241,3.0,9.0,41,0.00,,,0.00,,2013-07-25 19:42:00,
2013-07-25 13:02:00,89.0,61.0,29.89,West,265,6.0,11.0,40,0.00,,,0.00,,2013-07-25 20:02:00,
2013-07-25 13:11:00,90.0,62.0,29.88,NW,307,2.0,6.0,39,0.00,,,0.00,,2013-07-25 20:11:00,
2013-07-25 13:32:00,91.0,63.0,29.88,WSW,248,1.0,5.0,39,0.00,,,0.00,,2013-07-25 20:32:00,
2013-07-25 13:43:00,92.0,63.0,29.87,WNW,290,2.0,9.0,39,0.00,,,0.00,,2013-07-25 20:43:00,
2013-07-25 14:02:00,93.0,62.0,29.87,West,263,3.0,8.0,36,0.00,,,0.00,,2013-07-25 21:02:00,
2013-07-25 14:12:00,94.0,62.0,29.87,SW,225,2.0,9.0,35,0.00,,,0.00,,2013-07-25 21:12:00,
2013-07-25 14:32:00,95.0,63.0,29.86,WSW,244,2.0,7.0,35,0.00,,,0.00,,2013-07-25 21:32:00,
2013-07-25 14:52:00,95.0,62.0,29.86,NW,307,2.0,8.0,34,0.00,,,0.00,,2013-07-25 21:52:00,
2013-07-25 15:22:00,96.0,61.0,29.85,WNW,285,3.0,10.0,32,0.00,,,0.00,,2013-07-25 22:22:00,
2013-07-25 15:32:00,96.0,61.0,29.85,WSW,252,4.0,9.0,32,0.00,,,0.00,,2013-07-25 22:32:00,
2013-07-25 15:42:00,96.0,61.0,29.85,WSW,252,4.0,9.0,32,0.00,,,0.00,,2013-07-25 22:42:00,
2013-07-25 15:52:00,96.0,61.0,29.85,WSW,252,4.0,9.0,32,0.00,,,0.00,,2013-07-25 22:52:00,
2013-07-25 16:02:00,96.0,61.0,29.85,WSW,252,4.0,9.0,32,0.00,,,0.00,,2013-07-25 23:02:00,
2013-07-25 16:11:00,96.0,61.0,29.85,WSW,252,4.0,9.0,32,0.00,,,0.00,,2013-07-25 23:11:00,